sensor_id;sensor_type;location;lat;lon;timestamp;P1;durP1;ratioP1;P2;durP2;ratioP2
43710;SDS011;29309;42.682;23.372;2022-11-23T00:02:24;17.88;;;9.55;;
43710;SDS011;29309;42.682;23.372;2022-11-23T00:04:49;13.68;;;8.23;;
43710;SDS011;29309;42.682;23.372;2022-11-23T00:07:15;14.75;;;8.95;;
43710;SDS011;29309;42.682;23.372;2022-11-23T00:09:40;16.90;;;8.70;;
43710;SDS011;29309;42.682;23.372;2022-11-23T00:12:06;16.52;;;7.95;;
43710;SDS011;29309;42.682;23.372;2022-11-23T00:14:32;14.48;;;8.73;;
43710;SDS011;29309;42.682;23.372;2022-11-23T00:16:57;14.85;;;8.50;;
43710;SDS011;29309;42.682;23.372;2022-11-23T00:19:22;15.85;;;9.38;;
43710;SDS011;29309;42.682;23.372;2022-11-23T00:21:48;15.55;;;9.45;;
43710;SDS011;29309;42.682;23.372;2022-11-23T00:24:13;16.00;;;8.65;;
43710;SDS011;29309;42.682;23.372;2022-11-23T00:26:39;19.63;;;9.88;;
43710;SDS011;29309;42.682;23.372;2022-11-23T00:29:04;14.60;;;8.43;;
43710;SDS011;29309;42.682;23.372;2022-11-23T00:31:29;15.25;;;9.23;;
43710;SDS011;29309;42.682;23.372;2022-11-23T00:33:55;16.20;;;8.93;;
43710;SDS011;29309;42.682;23.372;2022-11-23T00:36:22;17.02;;;8.68;;
43710;SDS011;29309;42.682;23.372;2022-11-23T00:38:49;14.88;;;8.75;;
43710;SDS011;29309;42.682;23.372;2022-11-23T00:41:18;15.75;;;9.27;;
43710;SDS011;29309;42.682;23.372;2022-11-23T00:43:46;16.75;;;9.75;;
43710;SDS011;29309;42.682;23.372;2022-11-23T00:46:15;18.63;;;8.43;;
43710;SDS011;29309;42.682;23.372;2022-11-23T00:48:46;14.02;;;9.10;;
43710;SDS011;29309;42.682;23.372;2022-11-23T00:51:14;17.20;;;9.02;;
43710;SDS011;29309;42.682;23.372;2022-11-23T00:53:42;14.98;;;9.98;;
43710;SDS011;29309;42.682;23.372;2022-11-23T00:56:08;16.85;;;8.90;;
43710;SDS011;29309;42.682;23.372;2022-11-23T00:58:34;14.82;;;9.63;;
43710;SDS011;29309;42.682;23.372;2022-11-23T01:01:45;15.30;;;10.05;;
43710;SDS011;29309;42.682;23.372;2022-11-23T01:03:53;18.00;;;8.95;;
43710;SDS011;29309;42.682;23.372;2022-11-23T01:06:25;15.75;;;8.95;;
43710;SDS011;29309;42.682;23.372;2022-11-23T01:08:54;18.60;;;8.55;;
43710;SDS011;29309;42.682;23.372;2022-11-23T01:11:22;17.65;;;8.65;;
43710;SDS011;29309;42.682;23.372;2022-11-23T01:13:50;18.70;;;10.60;;
43710;SDS011;29309;42.682;23.372;2022-11-23T01:16:16;14.43;;;9.52;;
43710;SDS011;29309;42.682;23.372;2022-11-23T01:18:44;15.88;;;8.75;;
43710;SDS011;29309;42.682;23.372;2022-11-23T01:21:10;17.15;;;9.55;;
43710;SDS011;29309;42.682;23.372;2022-11-23T01:23:35;16.27;;;9.35;;
43710;SDS011;29309;42.682;23.372;2022-11-23T01:26:05;17.77;;;9.45;;
43710;SDS011;29309;42.682;23.372;2022-11-23T01:28:31;17.48;;;9.35;;
43710;SDS011;29309;42.682;23.372;2022-11-23T01:31:04;16.33;;;9.68;;
43710;SDS011;29309;42.682;23.372;2022-11-23T01:33:30;18.55;;;9.98;;
43710;SDS011;29309;42.682;23.372;2022-11-23T01:35:56;17.73;;;10.35;;
43710;SDS011;29309;42.682;23.372;2022-11-23T01:38:21;14.93;;;9.60;;
43710;SDS011;29309;42.682;23.372;2022-11-23T01:40:46;18.42;;;10.77;;
43710;SDS011;29309;42.682;23.372;2022-11-23T01:43:13;19.85;;;10.38;;
43710;SDS011;29309;42.682;23.372;2022-11-23T01:45:42;19.63;;;10.18;;
43710;SDS011;29309;42.682;23.372;2022-11-23T01:48:21;17.00;;;10.52;;
43710;SDS011;29309;42.682;23.372;2022-11-23T01:50:55;18.00;;;10.68;;
43710;SDS011;29309;42.682;23.372;2022-11-23T01:53:21;18.80;;;11.30;;
43710;SDS011;29309;42.682;23.372;2022-11-23T01:55:47;18.77;;;11.95;;
43710;SDS011;29309;42.682;23.372;2022-11-23T01:58:15;20.23;;;10.52;;
43710;SDS011;29309;42.682;23.372;2022-11-23T02:00:44;17.38;;;10.50;;
43710;SDS011;29309;42.682;23.372;2022-11-23T02:03:11;19.48;;;11.32;;
43710;SDS011;29309;42.682;23.372;2022-11-23T02:05:39;19.55;;;11.50;;
43710;SDS011;29309;42.682;23.372;2022-11-23T02:08:08;18.27;;;11.48;;
43710;SDS011;29309;42.682;23.372;2022-11-23T02:10:35;21.40;;;11.18;;
43710;SDS011;29309;42.682;23.372;2022-11-23T02:13:02;21.63;;;12.05;;
43710;SDS011;29309;42.682;23.372;2022-11-23T02:15:31;22.20;;;12.25;;
43710;SDS011;29309;42.682;23.372;2022-11-23T02:17:58;19.10;;;11.52;;
43710;SDS011;29309;42.682;23.372;2022-11-23T02:20:25;19.95;;;10.77;;
43710;SDS011;29309;42.682;23.372;2022-11-23T02:22:57;19.45;;;11.25;;
43710;SDS011;29309;42.682;23.372;2022-11-23T02:25:32;18.92;;;11.27;;
43710;SDS011;29309;42.682;23.372;2022-11-23T02:28:04;21.85;;;12.23;;
43710;SDS011;29309;42.682;23.372;2022-11-23T02:30:31;23.98;;;11.82;;
43710;SDS011;29309;42.682;23.372;2022-11-23T02:32:58;26.95;;;13.63;;
43710;SDS011;29309;42.682;23.372;2022-11-23T02:35:27;21.05;;;13.90;;
43710;SDS011;29309;42.682;23.372;2022-11-23T02:37:52;21.67;;;12.82;;
43710;SDS011;29309;42.682;23.372;2022-11-23T02:40:28;23.60;;;13.48;;
43710;SDS011;29309;42.682;23.372;2022-11-23T02:42:56;26.42;;;13.10;;
43710;SDS011;29309;42.682;23.372;2022-11-23T02:45:39;23.60;;;12.90;;
43710;SDS011;29309;42.682;23.372;2022-11-23T02:48:18;28.42;;;12.75;;
43710;SDS011;29309;42.682;23.372;2022-11-23T02:50:44;20.65;;;12.52;;
43710;SDS011;29309;42.682;23.372;2022-11-23T02:53:10;20.13;;;9.88;;
43710;SDS011;29309;42.682;23.372;2022-11-23T02:55:36;20.13;;;9.77;;
43710;SDS011;29309;42.682;23.372;2022-11-23T02:58:02;16.38;;;9.07;;
43710;SDS011;29309;42.682;23.372;2022-11-23T03:00:29;20.27;;;11.15;;
43710;SDS011;29309;42.682;23.372;2022-11-23T03:02:54;22.30;;;12.48;;
43710;SDS011;29309;42.682;23.372;2022-11-23T03:05:20;26.05;;;14.70;;
43710;SDS011;29309;42.682;23.372;2022-11-23T03:07:46;19.23;;;12.65;;
43710;SDS011;29309;42.682;23.372;2022-11-23T03:10:12;22.48;;;11.93;;
43710;SDS011;29309;42.682;23.372;2022-11-23T03:12:38;20.50;;;11.65;;
43710;SDS011;29309;42.682;23.372;2022-11-23T03:15:03;26.35;;;14.05;;
43710;SDS011;29309;42.682;23.372;2022-11-23T03:17:29;22.08;;;11.88;;
43710;SDS011;29309;42.682;23.372;2022-11-23T03:19:54;22.10;;;11.77;;
43710;SDS011;29309;42.682;23.372;2022-11-23T03:22:20;19.52;;;12.18;;
43710;SDS011;29309;42.682;23.372;2022-11-23T03:24:45;20.60;;;11.52;;
43710;SDS011;29309;42.682;23.372;2022-11-23T03:27:11;19.90;;;10.90;;
43710;SDS011;29309;42.682;23.372;2022-11-23T03:29:36;18.88;;;10.90;;
43710;SDS011;29309;42.682;23.372;2022-11-23T03:32:02;18.95;;;9.75;;
43710;SDS011;29309;42.682;23.372;2022-11-23T03:34:27;19.60;;;9.88;;
43710;SDS011;29309;42.682;23.372;2022-11-23T03:36:53;15.02;;;9.35;;
43710;SDS011;29309;42.682;23.372;2022-11-23T03:39:18;14.57;;;9.18;;
43710;SDS011;29309;42.682;23.372;2022-11-23T03:41:44;14.43;;;8.88;;
43710;SDS011;29309;42.682;23.372;2022-11-23T03:44:09;16.40;;;8.55;;
43710;SDS011;29309;42.682;23.372;2022-11-23T03:46:35;18.90;;;9.93;;
43710;SDS011;29309;42.682;23.372;2022-11-23T03:49:00;13.63;;;8.35;;
43710;SDS011;29309;42.682;23.372;2022-11-23T03:51:25;16.23;;;8.23;;
43710;SDS011;29309;42.682;23.372;2022-11-23T03:53:51;14.45;;;7.75;;
43710;SDS011;29309;42.682;23.372;2022-11-23T03:56:16;16.10;;;8.38;;
43710;SDS011;29309;42.682;23.372;2022-11-23T03:58:42;16.17;;;8.63;;
43710;SDS011;29309;42.682;23.372;2022-11-23T04:01:07;15.25;;;9.13;;
43710;SDS011;29309;42.682;23.372;2022-11-23T04:03:33;14.30;;;8.75;;
43710;SDS011;29309;42.682;23.372;2022-11-23T04:05:58;16.25;;;9.25;;
43710;SDS011;29309;42.682;23.372;2022-11-23T04:08:24;18.15;;;9.45;;
43710;SDS011;29309;42.682;23.372;2022-11-23T04:10:50;20.27;;;10.30;;
43710;SDS011;29309;42.682;23.372;2022-11-23T04:13:15;15.68;;;9.82;;
43710;SDS011;29309;42.682;23.372;2022-11-23T04:15:40;16.75;;;10.60;;
43710;SDS011;29309;42.682;23.372;2022-11-23T04:18:06;16.20;;;9.90;;
43710;SDS011;29309;42.682;23.372;2022-11-23T04:20:31;19.83;;;10.20;;
43710;SDS011;29309;42.682;23.372;2022-11-23T04:22:57;15.18;;;9.98;;
43710;SDS011;29309;42.682;23.372;2022-11-23T04:25:22;18.80;;;11.75;;
43710;SDS011;29309;42.682;23.372;2022-11-23T04:27:47;19.15;;;11.38;;
43710;SDS011;29309;42.682;23.372;2022-11-23T04:30:13;20.35;;;10.18;;
43710;SDS011;29309;42.682;23.372;2022-11-23T04:32:43;20.73;;;10.23;;
43710;SDS011;29309;42.682;23.372;2022-11-23T04:35:09;17.38;;;10.10;;
43710;SDS011;29309;42.682;23.372;2022-11-23T04:37:34;15.35;;;10.20;;
43710;SDS011;29309;42.682;23.372;2022-11-23T04:40:00;18.02;;;11.05;;
43710;SDS011;29309;42.682;23.372;2022-11-23T04:42:25;18.58;;;11.13;;
43710;SDS011;29309;42.682;23.372;2022-11-23T04:44:50;15.63;;;9.18;;
43710;SDS011;29309;42.682;23.372;2022-11-23T04:47:16;19.42;;;10.85;;
43710;SDS011;29309;42.682;23.372;2022-11-23T04:49:41;16.35;;;10.55;;
43710;SDS011;29309;42.682;23.372;2022-11-23T04:52:07;22.35;;;13.43;;
43710;SDS011;29309;42.682;23.372;2022-11-23T04:54:33;22.15;;;12.75;;
43710;SDS011;29309;42.682;23.372;2022-11-23T04:56:58;22.60;;;12.55;;
43710;SDS011;29309;42.682;23.372;2022-11-23T04:59:23;21.42;;;12.98;;
43710;SDS011;29309;42.682;23.372;2022-11-23T05:01:49;20.20;;;12.25;;
43710;SDS011;29309;42.682;23.372;2022-11-23T05:04:16;19.17;;;12.40;;
43710;SDS011;29309;42.682;23.372;2022-11-23T05:06:43;19.40;;;12.27;;
43710;SDS011;29309;42.682;23.372;2022-11-23T05:09:08;17.27;;;11.63;;
43710;SDS011;29309;42.682;23.372;2022-11-23T05:11:34;21.33;;;10.85;;
43710;SDS011;29309;42.682;23.372;2022-11-23T05:13:59;16.15;;;9.82;;
43710;SDS011;29309;42.682;23.372;2022-11-23T05:16:24;14.27;;;9.30;;
43710;SDS011;29309;42.682;23.372;2022-11-23T05:18:50;16.40;;;10.93;;
43710;SDS011;29309;42.682;23.372;2022-11-23T05:21:15;18.23;;;10.27;;
43710;SDS011;29309;42.682;23.372;2022-11-23T05:23:41;17.30;;;9.95;;
43710;SDS011;29309;42.682;23.372;2022-11-23T05:26:06;17.25;;;9.43;;
43710;SDS011;29309;42.682;23.372;2022-11-23T05:28:31;17.52;;;10.00;;
43710;SDS011;29309;42.682;23.372;2022-11-23T05:30:57;17.23;;;9.02;;
43710;SDS011;29309;42.682;23.372;2022-11-23T05:33:22;16.38;;;10.40;;
43710;SDS011;29309;42.682;23.372;2022-11-23T05:35:48;15.18;;;8.70;;
43710;SDS011;29309;42.682;23.372;2022-11-23T05:38:13;16.65;;;9.75;;
43710;SDS011;29309;42.682;23.372;2022-11-23T05:40:39;17.25;;;9.13;;
43710;SDS011;29309;42.682;23.372;2022-11-23T05:43:04;14.82;;;9.73;;
43710;SDS011;29309;42.682;23.372;2022-11-23T05:45:29;18.48;;;9.98;;
43710;SDS011;29309;42.682;23.372;2022-11-23T05:47:56;16.67;;;10.52;;
43710;SDS011;29309;42.682;23.372;2022-11-23T05:50:23;14.55;;;10.07;;
43710;SDS011;29309;42.682;23.372;2022-11-23T05:52:50;17.88;;;9.75;;
43710;SDS011;29309;42.682;23.372;2022-11-23T05:55:16;17.08;;;10.57;;
43710;SDS011;29309;42.682;23.372;2022-11-23T05:57:41;15.05;;;9.45;;
43710;SDS011;29309;42.682;23.372;2022-11-23T06:00:07;15.05;;;10.13;;
43710;SDS011;29309;42.682;23.372;2022-11-23T06:02:37;18.38;;;11.88;;
43710;SDS011;29309;42.682;23.372;2022-11-23T06:05:03;20.13;;;12.30;;
43710;SDS011;29309;42.682;23.372;2022-11-23T06:07:30;17.65;;;11.38;;
43710;SDS011;29309;42.682;23.372;2022-11-23T06:09:56;19.23;;;10.77;;
43710;SDS011;29309;42.682;23.372;2022-11-23T06:12:22;18.65;;;12.20;;
43710;SDS011;29309;42.682;23.372;2022-11-23T06:14:47;19.77;;;11.75;;
43710;SDS011;29309;42.682;23.372;2022-11-23T06:17:12;19.60;;;11.75;;
43710;SDS011;29309;42.682;23.372;2022-11-23T06:19:38;19.17;;;12.05;;
43710;SDS011;29309;42.682;23.372;2022-11-23T06:22:03;20.92;;;12.60;;
43710;SDS011;29309;42.682;23.372;2022-11-23T06:24:29;23.40;;;12.30;;
43710;SDS011;29309;42.682;23.372;2022-11-23T06:26:54;20.55;;;12.77;;
43710;SDS011;29309;42.682;23.372;2022-11-23T06:29:20;20.05;;;12.35;;
43710;SDS011;29309;42.682;23.372;2022-11-23T06:31:46;19.83;;;12.95;;
43710;SDS011;29309;42.682;23.372;2022-11-23T06:34:12;19.17;;;12.07;;
43710;SDS011;29309;42.682;23.372;2022-11-23T06:36:38;19.75;;;13.20;;
43710;SDS011;29309;42.682;23.372;2022-11-23T06:39:03;18.38;;;12.40;;
43710;SDS011;29309;42.682;23.372;2022-11-23T06:41:29;18.73;;;12.85;;
43710;SDS011;29309;42.682;23.372;2022-11-23T06:43:54;22.95;;;12.38;;
43710;SDS011;29309;42.682;23.372;2022-11-23T06:46:20;22.13;;;13.43;;
43710;SDS011;29309;42.682;23.372;2022-11-23T06:48:45;19.52;;;11.88;;
43710;SDS011;29309;42.682;23.372;2022-11-23T06:51:12;21.55;;;12.57;;
43710;SDS011;29309;42.682;23.372;2022-11-23T06:53:38;18.67;;;12.50;;
43710;SDS011;29309;42.682;23.372;2022-11-23T06:56:03;19.55;;;13.63;;
43710;SDS011;29309;42.682;23.372;2022-11-23T06:58:29;19.83;;;13.25;;
43710;SDS011;29309;42.682;23.372;2022-11-23T07:00:58;22.38;;;13.60;;
43710;SDS011;29309;42.682;23.372;2022-11-23T07:03:25;22.08;;;13.50;;
43710;SDS011;29309;42.682;23.372;2022-11-23T07:05:51;20.65;;;13.05;;
43710;SDS011;29309;42.682;23.372;2022-11-23T07:08:17;21.63;;;13.55;;
43710;SDS011;29309;42.682;23.372;2022-11-23T07:10:42;21.42;;;13.70;;
43710;SDS011;29309;42.682;23.372;2022-11-23T07:13:08;22.83;;;13.30;;
43710;SDS011;29309;42.682;23.372;2022-11-23T07:15:34;22.38;;;13.52;;
43710;SDS011;29309;42.682;23.372;2022-11-23T07:18:01;22.05;;;13.93;;
43710;SDS011;29309;42.682;23.372;2022-11-23T07:20:26;23.33;;;14.70;;
43710;SDS011;29309;42.682;23.372;2022-11-23T07:23:25;24.33;;;14.77;;
43710;SDS011;29309;42.682;23.372;2022-11-23T07:25:44;21.88;;;14.32;;
43710;SDS011;29309;42.682;23.372;2022-11-23T07:28:09;20.02;;;14.73;;
43710;SDS011;29309;42.682;23.372;2022-11-23T07:30:36;19.05;;;14.43;;
43710;SDS011;29309;42.682;23.372;2022-11-23T07:33:06;20.38;;;14.52;;
43710;SDS011;29309;42.682;23.372;2022-11-23T07:35:33;24.95;;;13.25;;
43710;SDS011;29309;42.682;23.372;2022-11-23T07:38:00;19.65;;;14.40;;
43710;SDS011;29309;42.682;23.372;2022-11-23T07:40:25;24.98;;;15.02;;
43710;SDS011;29309;42.682;23.372;2022-11-23T07:42:51;21.10;;;15.27;;
43710;SDS011;29309;42.682;23.372;2022-11-23T07:45:16;22.63;;;16.55;;
43710;SDS011;29309;42.682;23.372;2022-11-23T07:47:42;26.90;;;15.38;;
43710;SDS011;29309;42.682;23.372;2022-11-23T07:50:08;24.00;;;15.35;;
43710;SDS011;29309;42.682;23.372;2022-11-23T07:52:36;27.33;;;16.65;;
43710;SDS011;29309;42.682;23.372;2022-11-23T07:55:02;26.27;;;15.30;;
43710;SDS011;29309;42.682;23.372;2022-11-23T07:57:28;23.77;;;15.80;;
43710;SDS011;29309;42.682;23.372;2022-11-23T07:59:53;21.42;;;14.80;;
43710;SDS011;29309;42.682;23.372;2022-11-23T08:02:18;20.02;;;14.35;;
43710;SDS011;29309;42.682;23.372;2022-11-23T08:04:45;21.15;;;14.77;;
43710;SDS011;29309;42.682;23.372;2022-11-23T08:07:10;19.60;;;14.57;;
43710;SDS011;29309;42.682;23.372;2022-11-23T08:09:36;19.30;;;13.93;;
43710;SDS011;29309;42.682;23.372;2022-11-23T08:12:01;28.10;;;13.95;;
43710;SDS011;29309;42.682;23.372;2022-11-23T08:14:27;18.83;;;13.48;;
43710;SDS011;29309;42.682;23.372;2022-11-23T08:16:52;18.70;;;13.40;;
43710;SDS011;29309;42.682;23.372;2022-11-23T08:19:18;20.63;;;13.98;;
43710;SDS011;29309;42.682;23.372;2022-11-23T08:21:44;19.13;;;14.93;;
43710;SDS011;29309;42.682;23.372;2022-11-23T08:24:09;21.67;;;15.65;;
43710;SDS011;29309;42.682;23.372;2022-11-23T08:26:35;24.02;;;16.92;;
43710;SDS011;29309;42.682;23.372;2022-11-23T08:29:00;22.55;;;15.30;;
43710;SDS011;29309;42.682;23.372;2022-11-23T08:31:26;23.92;;;17.25;;
43710;SDS011;29309;42.682;23.372;2022-11-23T08:33:51;24.33;;;16.67;;
43710;SDS011;29309;42.682;23.372;2022-11-23T08:36:17;21.13;;;15.82;;
43710;SDS011;29309;42.682;23.372;2022-11-23T08:38:42;21.05;;;15.20;;
43710;SDS011;29309;42.682;23.372;2022-11-23T08:41:08;21.30;;;15.02;;
43710;SDS011;29309;42.682;23.372;2022-11-23T08:43:33;21.33;;;15.05;;
43710;SDS011;29309;42.682;23.372;2022-11-23T08:46:00;24.63;;;15.10;;
43710;SDS011;29309;42.682;23.372;2022-11-23T08:48:26;24.80;;;13.25;;
43710;SDS011;29309;42.682;23.372;2022-11-23T08:50:52;21.55;;;11.05;;
43710;SDS011;29309;42.682;23.372;2022-11-23T08:53:18;16.08;;;11.40;;
43710;SDS011;29309;42.682;23.372;2022-11-23T08:55:44;17.15;;;9.98;;
43710;SDS011;29309;42.682;23.372;2022-11-23T08:58:09;14.50;;;10.10;;
43710;SDS011;29309;42.682;23.372;2022-11-23T09:00:35;14.10;;;9.43;;
43710;SDS011;29309;42.682;23.372;2022-11-23T09:03:01;14.38;;;9.02;;
43710;SDS011;29309;42.682;23.372;2022-11-23T09:05:26;16.55;;;10.73;;
43710;SDS011;29309;42.682;23.372;2022-11-23T09:07:53;18.10;;;12.60;;
43710;SDS011;29309;42.682;23.372;2022-11-23T09:10:19;17.90;;;11.35;;
43710;SDS011;29309;42.682;23.372;2022-11-23T09:12:45;18.27;;;10.02;;
43710;SDS011;29309;42.682;23.372;2022-11-23T09:15:12;16.02;;;10.52;;
43710;SDS011;29309;42.682;23.372;2022-11-23T09:17:37;16.52;;;11.23;;
43710;SDS011;29309;42.682;23.372;2022-11-23T09:20:03;16.40;;;10.38;;
43710;SDS011;29309;42.682;23.372;2022-11-23T09:22:29;14.95;;;10.40;;
43710;SDS011;29309;42.682;23.372;2022-11-23T09:24:55;17.80;;;9.55;;
43710;SDS011;29309;42.682;23.372;2022-11-23T09:27:20;12.07;;;7.93;;
43710;SDS011;29309;42.682;23.372;2022-11-23T09:29:46;14.85;;;9.10;;
43710;SDS011;29309;42.682;23.372;2022-11-23T09:32:14;13.20;;;8.23;;
43710;SDS011;29309;42.682;23.372;2022-11-23T09:34:39;16.67;;;9.20;;
43710;SDS011;29309;42.682;23.372;2022-11-23T09:37:05;12.88;;;9.02;;
43710;SDS011;29309;42.682;23.372;2022-11-23T09:39:30;14.70;;;8.90;;
43710;SDS011;29309;42.682;23.372;2022-11-23T09:53:09;10.80;;;6.72;;
43710;SDS011;29309;42.682;23.372;2022-11-23T09:55:40;8.73;;;6.47;;
43710;SDS011;29309;42.682;23.372;2022-11-23T09:58:11;10.40;;;7.00;;
43710;SDS011;29309;42.682;23.372;2022-11-23T10:03:34;7.80;;;5.43;;
43710;SDS011;29309;42.682;23.372;2022-11-23T10:17:21;8.07;;;5.07;;
43710;SDS011;29309;42.682;23.372;2022-11-23T10:20:20;8.35;;;4.90;;
43710;SDS011;29309;42.682;23.372;2022-11-23T10:25:54;6.35;;;4.20;;
43710;SDS011;29309;42.682;23.372;2022-11-23T10:28:20;6.35;;;4.22;;
43710;SDS011;29309;42.682;23.372;2022-11-23T10:30:54;5.60;;;3.78;;
43710;SDS011;29309;42.682;23.372;2022-11-23T10:36:01;6.65;;;3.95;;
43710;SDS011;29309;42.682;23.372;2022-11-23T10:38:27;6.75;;;3.88;;
43710;SDS011;29309;42.682;23.372;2022-11-23T10:40:57;5.50;;;4.13;;
43710;SDS011;29309;42.682;23.372;2022-11-23T10:43:38;7.32;;;3.33;;
43710;SDS011;29309;42.682;23.372;2022-11-23T10:48:55;19.92;;;4.85;;
43710;SDS011;29309;42.682;23.372;2022-11-23T10:56:55;7.28;;;4.20;;
43710;SDS011;29309;42.682;23.372;2022-11-23T11:04:26;6.18;;;2.88;;
43710;SDS011;29309;42.682;23.372;2022-11-23T11:06:52;5.70;;;3.20;;
43710;SDS011;29309;42.682;23.372;2022-11-23T11:09:34;5.78;;;3.72;;
43710;SDS011;29309;42.682;23.372;2022-11-23T11:12:00;10.60;;;3.75;;
43710;SDS011;29309;42.682;23.372;2022-11-23T11:14:26;10.13;;;4.13;;
43710;SDS011;29309;42.682;23.372;2022-11-23T11:16:53;4.20;;;2.70;;
43710;SDS011;29309;42.682;23.372;2022-11-23T11:19:27;5.28;;;2.90;;
43710;SDS011;29309;42.682;23.372;2022-11-23T11:21:52;4.15;;;2.30;;
43710;SDS011;29309;42.682;23.372;2022-11-23T11:24:20;6.28;;;4.75;;
43710;SDS011;29309;42.682;23.372;2022-11-23T11:26:51;6.00;;;3.95;;
43710;SDS011;29309;42.682;23.372;2022-11-23T11:31:58;8.65;;;3.40;;
43710;SDS011;29309;42.682;23.372;2022-11-23T11:34:40;8.18;;;3.42;;
43710;SDS011;29309;42.682;23.372;2022-11-23T11:39:57;4.97;;;2.72;;
43710;SDS011;29309;42.682;23.372;2022-11-23T11:42:35;4.88;;;2.40;;
43710;SDS011;29309;42.682;23.372;2022-11-23T11:45:05;3.03;;;1.70;;
43710;SDS011;29309;42.682;23.372;2022-11-23T11:47:38;3.80;;;2.22;;
43710;SDS011;29309;42.682;23.372;2022-11-23T11:50:20;5.30;;;2.88;;
43710;SDS011;29309;42.682;23.372;2022-11-23T11:52:59;10.00;;;2.65;;
43710;SDS011;29309;42.682;23.372;2022-11-23T11:58:42;3.97;;;2.35;;
43710;SDS011;29309;42.682;23.372;2022-11-23T12:03:59;3.33;;;1.80;;
43710;SDS011;29309;42.682;23.372;2022-11-23T12:06:38;5.05;;;2.80;;
43710;SDS011;29309;42.682;23.372;2022-11-23T12:09:15;3.15;;;1.52;;
43710;SDS011;29309;42.682;23.372;2022-11-23T12:11:45;7.55;;;2.65;;
43710;SDS011;29309;42.682;23.372;2022-11-23T12:14:12;6.32;;;2.20;;
43710;SDS011;29309;42.682;23.372;2022-11-23T12:16:59;7.90;;;2.00;;
43710;SDS011;29309;42.682;23.372;2022-11-23T12:25:14;4.25;;;1.85;;
43710;SDS011;29309;42.682;23.372;2022-11-23T12:43:52;2.17;;;0.70;;
43710;SDS011;29309;42.682;23.372;2022-11-23T12:54:55;8.10;;;2.97;;
43710;SDS011;29309;42.682;23.372;2022-11-23T13:00:20;3.10;;;0.70;;
43710;SDS011;29309;42.682;23.372;2022-11-23T13:14:26;1.27;;;0.60;;
43710;SDS011;29309;42.682;23.372;2022-11-23T13:20:22;3.90;;;0.88;;
43710;SDS011;29309;42.682;23.372;2022-11-23T13:23:06;3.22;;;1.30;;
43710;SDS011;29309;42.682;23.372;2022-11-23T13:25:32;2.20;;;1.38;;
43710;SDS011;29309;42.682;23.372;2022-11-23T13:28:02;3.15;;;1.02;;
43710;SDS011;29309;42.682;23.372;2022-11-23T13:30:47;6.55;;;2.25;;
43710;SDS011;29309;42.682;23.372;2022-11-23T13:33:44;1.70;;;0.60;;
43710;SDS011;29309;42.682;23.372;2022-11-23T13:36:12;4.53;;;0.77;;
43710;SDS011;29309;42.682;23.372;2022-11-23T13:39:04;2.75;;;0.50;;
43710;SDS011;29309;42.682;23.372;2022-11-23T13:41:59;1.20;;;0.50;;
43710;SDS011;29309;42.682;23.372;2022-11-23T13:44:29;2.75;;;0.90;;
43710;SDS011;29309;42.682;23.372;2022-11-23T13:49:42;5.60;;;1.15;;
43710;SDS011;29309;42.682;23.372;2022-11-23T13:55:01;2.25;;;0.88;;
43710;SDS011;29309;42.682;23.372;2022-11-23T13:57:29;7.20;;;1.23;;
43710;SDS011;29309;42.682;23.372;2022-11-23T14:09:15;8.80;;;0.90;;
43710;SDS011;29309;42.682;23.372;2022-11-23T14:36:42;7.25;;;1.35;;
43710;SDS011;29309;42.682;23.372;2022-11-23T14:42:10;4.10;;;1.60;;
43710;SDS011;29309;42.682;23.372;2022-11-23T14:44:39;5.43;;;2.38;;
43710;SDS011;29309;42.682;23.372;2022-11-23T14:47:06;3.28;;;1.77;;
43710;SDS011;29309;42.682;23.372;2022-11-23T14:49:33;4.40;;;1.52;;
43710;SDS011;29309;42.682;23.372;2022-11-23T14:52:00;4.10;;;1.40;;
43710;SDS011;29309;42.682;23.372;2022-11-23T14:54:27;7.80;;;2.53;;
43710;SDS011;29309;42.682;23.372;2022-11-23T14:56:58;8.93;;;2.95;;
43710;SDS011;29309;42.682;23.372;2022-11-23T14:59:27;10.13;;;3.58;;
43710;SDS011;29309;42.682;23.372;2022-11-23T15:01:57;11.25;;;4.57;;
43710;SDS011;29309;42.682;23.372;2022-11-23T15:04:29;11.38;;;6.63;;
43710;SDS011;29309;42.682;23.372;2022-11-23T15:12:25;11.95;;;7.30;;
43710;SDS011;29309;42.682;23.372;2022-11-23T15:14:54;18.67;;;7.72;;
43710;SDS011;29309;42.682;23.372;2022-11-23T15:17:24;19.90;;;8.98;;
43710;SDS011;29309;42.682;23.372;2022-11-23T15:19:59;19.85;;;7.60;;
43710;SDS011;29309;42.682;23.372;2022-11-23T15:22:25;12.52;;;7.35;;
43710;SDS011;29309;42.682;23.372;2022-11-23T15:24:52;15.63;;;5.68;;
43710;SDS011;29309;42.682;23.372;2022-11-23T15:27:23;12.95;;;5.80;;
43710;SDS011;29309;42.682;23.372;2022-11-23T15:29:57;18.27;;;6.33;;
43710;SDS011;29309;42.682;23.372;2022-11-23T15:32:28;25.02;;;6.72;;
43710;SDS011;29309;42.682;23.372;2022-11-23T15:34:55;24.95;;;7.97;;
43710;SDS011;29309;42.682;23.372;2022-11-23T15:37:23;25.23;;;6.63;;
43710;SDS011;29309;42.682;23.372;2022-11-23T15:39:51;10.18;;;4.38;;
43710;SDS011;29309;42.682;23.372;2022-11-23T15:42:19;13.55;;;5.70;;
43710;SDS011;29309;42.682;23.372;2022-11-23T15:44:48;11.85;;;7.28;;
43710;SDS011;29309;42.682;23.372;2022-11-23T15:47:16;19.75;;;9.13;;
43710;SDS011;29309;42.682;23.372;2022-11-23T15:49:47;17.30;;;9.35;;
43710;SDS011;29309;42.682;23.372;2022-11-23T15:52:14;17.85;;;8.38;;
43710;SDS011;29309;42.682;23.372;2022-11-23T15:54:41;26.02;;;9.38;;
43710;SDS011;29309;42.682;23.372;2022-11-23T15:57:11;18.63;;;10.27;;
43710;SDS011;29309;42.682;23.372;2022-11-23T15:59:45;21.73;;;11.95;;
43710;SDS011;29309;42.682;23.372;2022-11-23T16:02:23;24.10;;;10.98;;
43710;SDS011;29309;42.682;23.372;2022-11-23T16:07:48;25.10;;;12.52;;
43710;SDS011;29309;42.682;23.372;2022-11-23T16:20:41;22.27;;;10.32;;
43710;SDS011;29309;42.682;23.372;2022-11-23T16:23:10;25.80;;;12.20;;
43710;SDS011;29309;42.682;23.372;2022-11-23T16:25:41;25.08;;;12.02;;
43710;SDS011;29309;42.682;23.372;2022-11-23T16:28:20;19.70;;;10.02;;
43710;SDS011;29309;42.682;23.372;2022-11-23T16:30:51;18.52;;;9.23;;
43710;SDS011;29309;42.682;23.372;2022-11-23T16:33:17;18.67;;;10.10;;
43710;SDS011;29309;42.682;23.372;2022-11-23T16:35:44;21.88;;;9.68;;
43710;SDS011;29309;42.682;23.372;2022-11-23T16:38:10;20.02;;;10.02;;
43710;SDS011;29309;42.682;23.372;2022-11-23T16:40:39;26.00;;;10.23;;
43710;SDS011;29309;42.682;23.372;2022-11-23T16:43:05;18.77;;;9.05;;
43710;SDS011;29309;42.682;23.372;2022-11-23T16:45:31;21.63;;;8.85;;
43710;SDS011;29309;42.682;23.372;2022-11-23T16:48:01;15.00;;;7.38;;
43710;SDS011;29309;42.682;23.372;2022-11-23T16:50:28;14.93;;;7.07;;
43710;SDS011;29309;42.682;23.372;2022-11-23T16:52:55;12.13;;;5.97;;
43710;SDS011;29309;42.682;23.372;2022-11-23T16:55:21;19.00;;;7.57;;
43710;SDS011;29309;42.682;23.372;2022-11-23T16:57:46;20.42;;;7.05;;
43710;SDS011;29309;42.682;23.372;2022-11-23T17:00:14;15.75;;;8.20;;
43710;SDS011;29309;42.682;23.372;2022-11-23T17:02:40;15.05;;;7.40;;
43710;SDS011;29309;42.682;23.372;2022-11-23T17:05:11;16.33;;;8.07;;
43710;SDS011;29309;42.682;23.372;2022-11-23T17:07:41;13.63;;;6.93;;
43710;SDS011;29309;42.682;23.372;2022-11-23T17:10:07;17.48;;;7.78;;